This is the latest recevied weather packets stored in our database for station/object VK3HAG. If no packets are shown the sender has not sent any weather packets the latest 10 day(s).
| Time | Temp. | Humidity | Pressure | Rain* | Wind** | Luminosity | Snow |
|---|---|---|---|---|---|---|---|
| 1777612504 | 27.22° C | 43% | 1020.2 hPa | 0 mm | - | - | - |
| 1777611605 | 27.22° C | 43% | 1020.3 hPa | 0 mm | - | - | - |
| 1777610704 | 27.22° C | 46% | 1020.3 hPa | 0 mm | - | - | - |
| 1777609804 | 27.22° C | 43% | 1020.4 hPa | 0 mm | - | - | - |
| 1777608905 | 27.22° C | 44% | 1020.4 hPa | 0 mm | - | - | - |
| 1777608004 | 27.22° C | 44% | 1020.5 hPa | 0 mm | - | - | - |
| 1777607104 | 27.22° C | 45% | 1020.6 hPa | 0 mm | - | - | - |
| 1777606205 | 26.67° C | 45% | 1020.8 hPa | 0 mm | - | - | - |
| 1777605305 | 26.67° C | 46% | 1021.1 hPa | 0 mm | - | - | - |
| 1777604404 | 26.11° C | 46% | 1021.3 hPa | 0 mm | - | - | - |
| 1777603505 | 26.11° C | 47% | 1021.5 hPa | 0 mm | - | - | - |
| 1777602604 | 26.11° C | 47% | 1021.7 hPa | 0 mm | - | - | - |
| 1777585505 | 11.11° C | 92% | 1023.3 hPa | 0 mm | - | - | - |
| 1777580105 | 9.44° C | 89% | 1022.8 hPa | 0 mm | - | - | - |
| 1777577405 | 10° C | 88% | 1022.5 hPa | 0 mm | - | - | - |
| 1777566604 | 10.56° C | 87% | 1022.2 hPa | 0 mm | - | - | - |
| 1777557613 | 11.67° C | 85% | 1022.8 hPa | 0 mm | - | - | - |
| 1777555805 | 11.67° C | 86% | 1023 hPa | 0 mm | - | - | - |
| 1777554905 | 11.67° C | 85% | 1023.1 hPa | 0 mm | - | - | - |
| 1777554005 | 11.67° C | 85% | 1023.3 hPa | 0 mm | - | - | - |
| 1777552205 | 12.22° C | 84% | 1023.1 hPa | 0 mm | - | - | - |
| 1777551305 | 12.22° C | 84% | 1023.2 hPa | 0 mm | - | - | - |
| 1777549505 | 12.78° C | 83% | 1023.3 hPa | 0 mm | - | - | - |
| 1777545004 | 13.33° C | 78% | 1023.1 hPa | 0 mm | - | - | - |
| 1777544104 | 13.33° C | 78% | 1023.2 hPa | 0 mm | - | - | - |
* Rain latest hour (hover to see other rain measurements)
** Current wind speed in m/s (hover to see current wind gust speed)